Aachen-Merzbrück Airport EDKA

Flugplatz Daten

Name: Aachen-Merzbrück Airport

Ident: EDKA

Lat: 50,82305527

Long: 6,186388969

Platzhöhe: 623 ft

IataCode: AAH

City: Aachen

Metar

2019/08/14 05:00
EDKA 140500Z AUTO 22007KT NCD 21/21 Q1017

Taf

Gewünschte Webcam nicht vorhanden? Dann fügen Sie eine hinzu. Sie wird dann so schnell wie möglich freigeschaltet
Url: Title: